sensor_id;sensor_type;location;lat;lon;timestamp;pressure;altitude;pressure_sealevel;temperature;humidity
17060;BME280;8646;49.716;9.266;2022-11-21T00:00:32;99269.72;;;6.81;100.00
17060;BME280;8646;49.716;9.266;2022-11-21T00:03:39;99260.91;;;6.77;100.00
17060;BME280;8646;49.716;9.266;2022-11-21T00:06:43;99262.72;;;6.77;100.00
17060;BME280;8646;49.716;9.266;2022-11-21T00:09:46;99259.09;;;6.78;100.00
17060;BME280;8646;49.716;9.266;2022-11-21T00:12:52;99253.19;;;6.70;100.00
17060;BME280;8646;49.716;9.266;2022-11-21T00:15:55;99267.03;;;6.81;100.00
17060;BME280;8646;49.716;9.266;2022-11-21T00:18:58;99263.38;;;6.82;100.00
17060;BME280;8646;49.716;9.266;2022-11-21T00:22:03;99247.41;;;6.79;100.00
17060;BME280;8646;49.716;9.266;2022-11-21T00:25:06;99245.78;;;6.75;100.00
17060;BME280;8646;49.716;9.266;2022-11-21T00:28:10;99244.19;;;6.71;100.00
17060;BME280;8646;49.716;9.266;2022-11-21T00:31:21;99244.31;;;6.68;100.00
17060;BME280;8646;49.716;9.266;2022-11-21T00:34:25;99228.31;;;6.65;100.00
17060;BME280;8646;49.716;9.266;2022-11-21T00:37:30;99243.41;;;6.67;100.00
17060;BME280;8646;49.716;9.266;2022-11-21T00:40:33;99263.28;;;6.65;100.00
17060;BME280;8646;49.716;9.266;2022-11-21T00:43:36;99260.59;;;6.65;100.00
17060;BME280;8646;49.716;9.266;2022-11-21T00:46:39;99246.09;;;6.67;100.00
17060;BME280;8646;49.716;9.266;2022-11-21T00:49:42;99224.00;;;6.61;100.00
17060;BME280;8646;49.716;9.266;2022-11-21T00:52:46;99234.69;;;6.62;100.00
17060;BME280;8646;49.716;9.266;2022-11-21T00:55:49;99250.75;;;6.64;100.00
17060;BME280;8646;49.716;9.266;2022-11-21T00:58:52;99244.44;;;6.65;100.00
17060;BME280;8646;49.716;9.266;2022-11-21T01:01:55;99248.84;;;6.66;100.00
17060;BME280;8646;49.716;9.266;2022-11-21T01:04:57;99240.78;;;6.66;100.00
17060;BME280;8646;49.716;9.266;2022-11-21T01:08:03;99209.34;;;6.68;100.00
17060;BME280;8646;49.716;9.266;2022-11-21T01:11:08;99220.56;;;6.57;100.00
17060;BME280;8646;49.716;9.266;2022-11-21T01:14:10;99220.13;;;6.47;100.00
17060;BME280;8646;49.716;9.266;2022-11-21T01:17:13;99197.66;;;6.28;100.00
17060;BME280;8646;49.716;9.266;2022-11-21T01:20:16;99213.91;;;6.25;100.00
17060;BME280;8646;49.716;9.266;2022-11-21T01:23:20;99210.53;;;6.20;100.00
17060;BME280;8646;49.716;9.266;2022-11-21T01:26:25;99208.31;;;6.09;100.00
17060;BME280;8646;49.716;9.266;2022-11-21T01:29:28;99205.81;;;6.05;100.00
17060;BME280;8646;49.716;9.266;2022-11-21T01:32:31;99201.59;;;5.99;100.00
17060;BME280;8646;49.716;9.266;2022-11-21T01:35:34;99191.28;;;5.89;100.00
17060;BME280;8646;49.716;9.266;2022-11-21T01:38:39;99190.09;;;5.96;100.00
17060;BME280;8646;49.716;9.266;2022-11-21T01:41:43;99198.59;;;6.07;100.00
17060;BME280;8646;49.716;9.266;2022-11-21T01:44:48;99195.34;;;6.19;100.00
17060;BME280;8646;49.716;9.266;2022-11-21T01:47:52;99196.19;;;6.21;100.00
17060;BME280;8646;49.716;9.266;2022-11-21T01:50:58;99189.53;;;6.30;100.00
17060;BME280;8646;49.716;9.266;2022-11-21T01:54:07;99197.38;;;6.34;100.00
17060;BME280;8646;49.716;9.266;2022-11-21T01:57:13;99197.16;;;6.40;100.00
17060;BME280;8646;49.716;9.266;2022-11-21T02:00:19;99193.38;;;6.44;100.00
17060;BME280;8646;49.716;9.266;2022-11-21T02:03:28;99166.28;;;6.29;100.00
17060;BME280;8646;49.716;9.266;2022-11-21T02:06:33;99172.41;;;6.32;100.00
17060;BME280;8646;49.716;9.266;2022-11-21T02:09:41;99179.38;;;6.36;100.00
17060;BME280;8646;49.716;9.266;2022-11-21T02:12:48;99177.66;;;6.35;100.00
17060;BME280;8646;49.716;9.266;2022-11-21T02:15:51;99154.41;;;6.34;100.00
17060;BME280;8646;49.716;9.266;2022-11-21T02:18:55;99159.06;;;6.31;100.00
17060;BME280;8646;49.716;9.266;2022-11-21T02:22:01;99159.78;;;6.34;100.00
17060;BME280;8646;49.716;9.266;2022-11-21T02:25:27;99170.41;;;6.37;100.00
17060;BME280;8646;49.716;9.266;2022-11-21T02:28:30;99156.34;;;6.31;100.00
17060;BME280;8646;49.716;9.266;2022-11-21T02:31:33;99166.09;;;6.33;100.00
17060;BME280;8646;49.716;9.266;2022-11-21T02:34:36;99154.56;;;6.31;100.00
17060;BME280;8646;49.716;9.266;2022-11-21T02:37:40;99146.63;;;6.28;100.00
17060;BME280;8646;49.716;9.266;2022-11-21T02:40:49;99153.06;;;6.24;100.00
17060;BME280;8646;49.716;9.266;2022-11-21T02:43:56;99150.56;;;6.20;100.00
17060;BME280;8646;49.716;9.266;2022-11-21T02:47:01;99156.16;;;6.15;100.00
17060;BME280;8646;49.716;9.266;2022-11-21T02:50:09;99160.88;;;6.08;100.00
17060;BME280;8646;49.716;9.266;2022-11-21T02:53:16;99165.41;;;6.08;100.00
17060;BME280;8646;49.716;9.266;2022-11-21T02:56:21;99164.59;;;6.06;100.00
17060;BME280;8646;49.716;9.266;2022-11-21T02:59:24;99161.16;;;6.02;100.00
17060;BME280;8646;49.716;9.266;2022-11-21T03:02:27;99167.41;;;6.03;100.00
17060;BME280;8646;49.716;9.266;2022-11-21T03:05:30;99152.22;;;6.02;100.00
17060;BME280;8646;49.716;9.266;2022-11-21T03:08:33;99165.09;;;6.16;100.00
17060;BME280;8646;49.716;9.266;2022-11-21T03:11:37;99157.09;;;6.14;100.00
17060;BME280;8646;49.716;9.266;2022-11-21T03:14:40;99152.38;;;6.19;100.00
17060;BME280;8646;49.716;9.266;2022-11-21T03:17:47;99157.81;;;6.18;100.00
17060;BME280;8646;49.716;9.266;2022-11-21T03:20:50;99156.88;;;6.19;100.00
17060;BME280;8646;49.716;9.266;2022-11-21T03:23:53;99165.75;;;6.21;100.00
17060;BME280;8646;49.716;9.266;2022-11-21T03:26:57;99172.59;;;6.28;100.00
17060;BME280;8646;49.716;9.266;2022-11-21T03:30:00;99176.66;;;6.38;100.00
17060;BME280;8646;49.716;9.266;2022-11-21T03:33:03;99178.41;;;6.39;100.00
17060;BME280;8646;49.716;9.266;2022-11-21T03:36:06;99175.56;;;6.42;100.00
17060;BME280;8646;49.716;9.266;2022-11-21T03:39:09;99172.63;;;6.48;100.00
17060;BME280;8646;49.716;9.266;2022-11-21T03:42:13;99179.06;;;6.44;100.00
17060;BME280;8646;49.716;9.266;2022-11-21T03:45:16;99177.59;;;6.37;100.00
17060;BME280;8646;49.716;9.266;2022-11-21T03:48:19;99182.13;;;6.35;100.00
17060;BME280;8646;49.716;9.266;2022-11-21T03:51:22;99186.91;;;6.28;100.00
17060;BME280;8646;49.716;9.266;2022-11-21T03:54:25;99183.56;;;6.23;100.00
17060;BME280;8646;49.716;9.266;2022-11-21T03:57:29;99182.81;;;6.20;100.00
17060;BME280;8646;49.716;9.266;2022-11-21T04:00:32;99189.31;;;6.14;100.00
17060;BME280;8646;49.716;9.266;2022-11-21T04:03:35;99193.75;;;6.15;100.00
17060;BME280;8646;49.716;9.266;2022-11-21T04:06:38;99190.03;;;6.18;100.00
17060;BME280;8646;49.716;9.266;2022-11-21T04:09:41;99183.06;;;6.13;100.00
17060;BME280;8646;49.716;9.266;2022-11-21T04:12:45;99187.56;;;6.13;100.00
17060;BME280;8646;49.716;9.266;2022-11-21T04:15:48;99179.50;;;6.13;100.00
17060;BME280;8646;49.716;9.266;2022-11-21T04:18:51;99190.81;;;6.21;100.00
17060;BME280;8646;49.716;9.266;2022-11-21T04:21:53;99178.78;;;6.30;100.00
17060;BME280;8646;49.716;9.266;2022-11-21T04:24:57;99165.41;;;6.28;100.00
17060;BME280;8646;49.716;9.266;2022-11-21T04:28:02;99181.56;;;6.48;100.00
17060;BME280;8646;49.716;9.266;2022-11-21T04:31:07;99185.03;;;6.50;100.00
17060;BME280;8646;49.716;9.266;2022-11-21T04:34:12;99182.16;;;6.55;100.00
17060;BME280;8646;49.716;9.266;2022-11-21T04:37:14;99186.50;;;6.58;100.00
17060;BME280;8646;49.716;9.266;2022-11-21T04:40:17;99188.19;;;6.60;100.00
17060;BME280;8646;49.716;9.266;2022-11-21T04:43:22;99193.56;;;6.60;100.00
17060;BME280;8646;49.716;9.266;2022-11-21T04:46:25;99189.00;;;6.62;100.00
17060;BME280;8646;49.716;9.266;2022-11-21T04:49:27;99195.97;;;6.66;100.00
17060;BME280;8646;49.716;9.266;2022-11-21T04:52:30;99194.03;;;6.70;100.00
17060;BME280;8646;49.716;9.266;2022-11-21T04:55:33;99186.78;;;6.72;100.00
17060;BME280;8646;49.716;9.266;2022-11-21T04:58:37;99190.25;;;6.74;100.00
17060;BME280;8646;49.716;9.266;2022-11-21T05:01:40;99195.50;;;6.77;100.00
17060;BME280;8646;49.716;9.266;2022-11-21T05:04:43;99196.38;;;6.77;100.00
17060;BME280;8646;49.716;9.266;2022-11-21T05:07:45;99192.88;;;6.75;100.00
17060;BME280;8646;49.716;9.266;2022-11-21T05:10:48;99192.41;;;6.66;100.00
17060;BME280;8646;49.716;9.266;2022-11-21T05:14:10;99193.16;;;6.49;100.00
17060;BME280;8646;49.716;9.266;2022-11-21T05:17:12;99191.88;;;6.37;100.00
17060;BME280;8646;49.716;9.266;2022-11-21T05:20:15;99193.03;;;6.32;100.00
17060;BME280;8646;49.716;9.266;2022-11-21T05:23:18;99183.28;;;6.29;100.00
17060;BME280;8646;49.716;9.266;2022-11-21T05:26:21;99196.84;;;6.26;100.00
17060;BME280;8646;49.716;9.266;2022-11-21T05:29:25;99179.78;;;6.27;100.00
17060;BME280;8646;49.716;9.266;2022-11-21T05:32:28;99189.72;;;6.25;100.00
17060;BME280;8646;49.716;9.266;2022-11-21T05:35:31;99168.88;;;6.10;100.00
17060;BME280;8646;49.716;9.266;2022-11-21T05:38:39;99186.50;;;6.17;100.00
17060;BME280;8646;49.716;9.266;2022-11-21T05:41:42;99181.53;;;6.08;100.00
17060;BME280;8646;49.716;9.266;2022-11-21T05:44:46;99188.78;;;6.06;100.00
17060;BME280;8646;49.716;9.266;2022-11-21T05:47:48;99188.72;;;6.07;100.00
17060;BME280;8646;49.716;9.266;2022-11-21T05:50:50;99186.69;;;6.12;100.00
17060;BME280;8646;49.716;9.266;2022-11-21T05:53:53;99198.94;;;6.20;100.00
17060;BME280;8646;49.716;9.266;2022-11-21T05:56:56;99194.84;;;6.31;100.00
17060;BME280;8646;49.716;9.266;2022-11-21T06:00:00;99193.38;;;6.44;100.00
17060;BME280;8646;49.716;9.266;2022-11-21T06:03:03;99195.66;;;6.54;100.00
17060;BME280;8646;49.716;9.266;2022-11-21T06:06:23;99196.31;;;6.59;100.00
17060;BME280;8646;49.716;9.266;2022-11-21T06:09:26;99199.81;;;6.61;100.00
17060;BME280;8646;49.716;9.266;2022-11-21T06:12:30;99190.81;;;6.62;100.00
17060;BME280;8646;49.716;9.266;2022-11-21T06:15:36;99206.41;;;6.54;100.00
17060;BME280;8646;49.716;9.266;2022-11-21T06:18:40;99204.72;;;6.51;100.00
17060;BME280;8646;49.716;9.266;2022-11-21T06:21:43;99212.31;;;6.62;100.00
17060;BME280;8646;49.716;9.266;2022-11-21T06:24:45;99212.44;;;6.59;100.00
17060;BME280;8646;49.716;9.266;2022-11-21T06:27:48;99201.91;;;6.54;100.00
17060;BME280;8646;49.716;9.266;2022-11-21T06:30:52;99203.72;;;6.54;100.00
17060;BME280;8646;49.716;9.266;2022-11-21T06:33:57;99211.13;;;6.48;100.00
17060;BME280;8646;49.716;9.266;2022-11-21T06:37:01;99214.13;;;6.41;100.00
17060;BME280;8646;49.716;9.266;2022-11-21T06:40:04;99208.13;;;6.34;100.00
17060;BME280;8646;49.716;9.266;2022-11-21T06:43:13;99218.09;;;6.32;100.00
17060;BME280;8646;49.716;9.266;2022-11-21T06:46:18;99224.25;;;6.34;100.00
17060;BME280;8646;49.716;9.266;2022-11-21T06:49:20;99218.88;;;6.34;100.00
17060;BME280;8646;49.716;9.266;2022-11-21T06:52:23;99229.03;;;6.28;100.00
17060;BME280;8646;49.716;9.266;2022-11-21T06:55:26;99203.69;;;6.13;100.00
17060;BME280;8646;49.716;9.266;2022-11-21T06:58:31;99238.41;;;6.18;100.00
17060;BME280;8646;49.716;9.266;2022-11-21T07:01:35;99240.22;;;6.17;100.00
17060;BME280;8646;49.716;9.266;2022-11-21T07:04:38;99239.44;;;6.15;100.00
17060;BME280;8646;49.716;9.266;2022-11-21T07:07:41;99232.31;;;6.14;100.00
17060;BME280;8646;49.716;9.266;2022-11-21T07:10:44;99239.28;;;6.18;100.00
17060;BME280;8646;49.716;9.266;2022-11-21T07:14:06;99222.75;;;6.07;100.00
17060;BME280;8646;49.716;9.266;2022-11-21T07:17:11;99231.91;;;6.23;100.00
17060;BME280;8646;49.716;9.266;2022-11-21T07:20:18;99234.22;;;6.32;100.00
17060;BME280;8646;49.716;9.266;2022-11-21T07:23:21;99234.66;;;6.42;100.00
17060;BME280;8646;49.716;9.266;2022-11-21T07:26:24;99238.66;;;6.54;100.00
17060;BME280;8646;49.716;9.266;2022-11-21T07:29:27;99226.81;;;6.58;100.00
17060;BME280;8646;49.716;9.266;2022-11-21T07:32:32;99228.97;;;6.70;100.00
17060;BME280;8646;49.716;9.266;2022-11-21T07:35:35;99231.31;;;6.77;100.00
17060;BME280;8646;49.716;9.266;2022-11-21T07:38:38;99236.66;;;6.79;100.00
17060;BME280;8646;49.716;9.266;2022-11-21T07:41:42;99241.09;;;6.80;100.00
17060;BME280;8646;49.716;9.266;2022-11-21T07:44:45;99236.66;;;6.79;100.00
17060;BME280;8646;49.716;9.266;2022-11-21T07:47:56;99246.47;;;6.80;100.00
17060;BME280;8646;49.716;9.266;2022-11-21T07:51:02;99239.88;;;6.87;100.00
17060;BME280;8646;49.716;9.266;2022-11-21T07:54:05;99236.06;;;6.91;100.00
17060;BME280;8646;49.716;9.266;2022-11-21T07:57:08;99250.88;;;7.01;100.00
17060;BME280;8646;49.716;9.266;2022-11-21T08:00:12;99242.00;;;6.99;100.00
17060;BME280;8646;49.716;9.266;2022-11-21T08:03:17;99250.53;;;7.09;100.00
17060;BME280;8646;49.716;9.266;2022-11-21T08:06:19;99260.13;;;7.14;100.00
17060;BME280;8646;49.716;9.266;2022-11-21T08:09:26;99256.38;;;7.18;100.00
17060;BME280;8646;49.716;9.266;2022-11-21T08:12:31;99251.56;;;7.25;100.00
17060;BME280;8646;49.716;9.266;2022-11-21T08:15:35;99260.97;;;7.35;100.00
17060;BME280;8646;49.716;9.266;2022-11-21T08:18:39;99265.69;;;7.49;100.00
17060;BME280;8646;49.716;9.266;2022-11-21T08:21:42;99255.16;;;7.63;100.00
17060;BME280;8646;49.716;9.266;2022-11-21T08:24:45;99232.53;;;7.67;100.00
17060;BME280;8646;49.716;9.266;2022-11-21T08:27:48;99244.50;;;7.79;100.00
17060;BME280;8646;49.716;9.266;2022-11-21T08:30:51;99239.72;;;7.85;100.00
17060;BME280;8646;49.716;9.266;2022-11-21T08:33:56;99230.69;;;7.86;100.00
17060;BME280;8646;49.716;9.266;2022-11-21T08:36:58;99223.81;;;7.98;100.00
17060;BME280;8646;49.716;9.266;2022-11-21T08:40:03;99236.47;;;8.15;100.00
17060;BME280;8646;49.716;9.266;2022-11-21T08:43:08;99233.81;;;8.32;100.00
17060;BME280;8646;49.716;9.266;2022-11-21T08:46:11;99240.25;;;8.47;100.00
17060;BME280;8646;49.716;9.266;2022-11-21T08:49:15;99240.97;;;8.50;100.00
17060;BME280;8646;49.716;9.266;2022-11-21T08:52:18;99228.44;;;8.49;100.00
17060;BME280;8646;49.716;9.266;2022-11-21T08:55:20;99234.47;;;8.54;100.00
17060;BME280;8646;49.716;9.266;2022-11-21T08:58:23;99233.50;;;8.55;100.00
17060;BME280;8646;49.716;9.266;2022-11-21T09:01:26;99231.63;;;8.57;100.00
17060;BME280;8646;49.716;9.266;2022-11-21T09:04:30;99231.44;;;8.60;100.00
17060;BME280;8646;49.716;9.266;2022-11-21T09:07:33;99224.00;;;8.65;100.00
17060;BME280;8646;49.716;9.266;2022-11-21T09:10:36;99222.88;;;8.69;100.00
17060;BME280;8646;49.716;9.266;2022-11-21T09:13:39;99216.19;;;8.76;98.80
17060;BME280;8646;49.716;9.266;2022-11-21T09:16:42;99225.50;;;8.88;99.26
17060;BME280;8646;49.716;9.266;2022-11-21T09:20:06;99223.88;;;9.01;98.10
17060;BME280;8646;49.716;9.266;2022-11-21T09:23:11;99217.75;;;9.15;96.99
17060;BME280;8646;49.716;9.266;2022-11-21T09:26:14;99230.09;;;9.19;96.69
17060;BME280;8646;49.716;9.266;2022-11-21T09:29:17;99234.91;;;9.14;96.68
17060;BME280;8646;49.716;9.266;2022-11-21T09:32:19;99223.00;;;9.01;95.16
17060;BME280;8646;49.716;9.266;2022-11-21T09:35:23;99227.06;;;8.92;94.70
17060;BME280;8646;49.716;9.266;2022-11-21T09:38:27;99228.59;;;8.80;94.59
17060;BME280;8646;49.716;9.266;2022-11-21T09:41:35;99238.91;;;8.72;94.61
17060;BME280;8646;49.716;9.266;2022-11-21T09:45:05;99238.03;;;8.72;95.31
17060;BME280;8646;49.716;9.266;2022-11-21T09:48:11;99236.22;;;8.72;95.05
17060;BME280;8646;49.716;9.266;2022-11-21T09:51:17;99232.25;;;8.79;94.03
17060;BME280;8646;49.716;9.266;2022-11-21T09:54:24;99231.22;;;8.82;93.38
17060;BME280;8646;49.716;9.266;2022-11-21T09:57:28;99229.03;;;9.06;93.51
17060;BME280;8646;49.716;9.266;2022-11-21T10:00:35;99228.81;;;9.26;92.50
17060;BME280;8646;49.716;9.266;2022-11-21T10:03:41;99218.31;;;9.37;90.83
17060;BME280;8646;49.716;9.266;2022-11-21T10:06:51;99215.44;;;9.40;90.08
17060;BME280;8646;49.716;9.266;2022-11-21T10:10:17;99208.53;;;9.35;88.54
17060;BME280;8646;49.716;9.266;2022-11-21T10:13:32;99194.97;;;9.36;89.03
17060;BME280;8646;49.716;9.266;2022-11-21T10:16:43;99171.47;;;9.38;89.25
17060;BME280;8646;49.716;9.266;2022-11-21T10:20:05;99203.78;;;9.71;88.82
17060;BME280;8646;49.716;9.266;2022-11-21T10:23:24;99190.44;;;9.84;87.96
17060;BME280;8646;49.716;9.266;2022-11-21T10:26:35;99180.84;;;9.94;85.06
17060;BME280;8646;49.716;9.266;2022-11-21T10:29:46;99183.91;;;9.88;86.81
17060;BME280;8646;49.716;9.266;2022-11-21T10:32:55;99172.91;;;9.91;83.27
17060;BME280;8646;49.716;9.266;2022-11-21T10:36:01;99143.50;;;9.71;82.72
17060;BME280;8646;49.716;9.266;2022-11-21T10:39:13;99165.97;;;9.87;84.62
17060;BME280;8646;49.716;9.266;2022-11-21T10:42:29;99152.59;;;10.00;84.66
17060;BME280;8646;49.716;9.266;2022-11-21T10:45:33;99141.78;;;10.00;81.65
17060;BME280;8646;49.716;9.266;2022-11-21T10:48:35;99139.63;;;9.90;81.43
17060;BME280;8646;49.716;9.266;2022-11-21T10:51:44;99145.47;;;9.83;82.95
17060;BME280;8646;49.716;9.266;2022-11-21T10:55:05;99154.38;;;9.69;83.77
17060;BME280;8646;49.716;9.266;2022-11-21T10:58:16;99148.03;;;9.54;84.03
17060;BME280;8646;49.716;9.266;2022-11-21T11:01:21;99138.09;;;9.39;84.09
17060;BME280;8646;49.716;9.266;2022-11-21T11:04:27;99138.34;;;9.19;83.81
17060;BME280;8646;49.716;9.266;2022-11-21T11:07:38;99144.06;;;8.97;84.50
17060;BME280;8646;49.716;9.266;2022-11-21T11:10:43;99142.28;;;8.80;84.06
17060;BME280;8646;49.716;9.266;2022-11-21T11:13:55;99127.94;;;8.63;83.94
17060;BME280;8646;49.716;9.266;2022-11-21T11:16:58;99125.66;;;8.55;82.38
17060;BME280;8646;49.716;9.266;2022-11-21T11:20:04;99092.22;;;8.25;83.68
17060;BME280;8646;49.716;9.266;2022-11-21T11:23:23;99117.44;;;8.41;84.58
17060;BME280;8646;49.716;9.266;2022-11-21T11:26:29;99103.00;;;8.42;84.39
17060;BME280;8646;49.716;9.266;2022-11-21T11:29:48;99099.22;;;8.62;84.66
17060;BME280;8646;49.716;9.266;2022-11-21T11:32:51;99093.00;;;8.77;84.99
17060;BME280;8646;49.716;9.266;2022-11-21T11:35:55;99083.81;;;8.97;85.08
17060;BME280;8646;49.716;9.266;2022-11-21T11:39:08;99076.88;;;9.24;85.22
17060;BME280;8646;49.716;9.266;2022-11-21T11:42:41;99061.19;;;9.46;84.06
17060;BME280;8646;49.716;9.266;2022-11-21T11:46:26;99051.78;;;9.53;80.66
17060;BME280;8646;49.716;9.266;2022-11-21T11:49:50;99054.28;;;9.41;80.41
17060;BME280;8646;49.716;9.266;2022-11-21T11:53:15;99050.56;;;9.28;81.56
17060;BME280;8646;49.716;9.266;2022-11-21T11:56:25;99047.88;;;9.28;82.54
17060;BME280;8646;49.716;9.266;2022-11-21T11:59:33;99043.34;;;9.28;82.97
17060;BME280;8646;49.716;9.266;2022-11-21T12:02:46;99037.41;;;9.37;80.53
17060;BME280;8646;49.716;9.266;2022-11-21T12:05:58;99038.91;;;9.27;82.60
17060;BME280;8646;49.716;9.266;2022-11-21T12:09:16;99033.13;;;9.33;83.79
17060;BME280;8646;49.716;9.266;2022-11-21T12:12:28;99024.44;;;9.28;84.53
17060;BME280;8646;49.716;9.266;2022-11-21T12:15:40;99035.31;;;9.27;84.64
17060;BME280;8646;49.716;9.266;2022-11-21T12:18:54;99024.19;;;9.17;84.93
17060;BME280;8646;49.716;9.266;2022-11-21T12:21:57;99023.06;;;9.21;85.20
17060;BME280;8646;49.716;9.266;2022-11-21T12:25:02;99017.38;;;9.26;85.25
17060;BME280;8646;49.716;9.266;2022-11-21T12:28:25;99007.78;;;9.51;82.33
17060;BME280;8646;49.716;9.266;2022-11-21T12:31:38;98995.13;;;9.52;80.79
17060;BME280;8646;49.716;9.266;2022-11-21T12:34:55;98975.69;;;9.31;82.60
17060;BME280;8646;49.716;9.266;2022-11-21T12:38:08;98992.31;;;9.39;83.44
17060;BME280;8646;49.716;9.266;2022-11-21T12:41:23;98975.16;;;9.40;82.70
17060;BME280;8646;49.716;9.266;2022-11-21T12:44:58;98980.06;;;9.64;83.05
17060;BME280;8646;49.716;9.266;2022-11-21T12:48:12;98958.53;;;9.62;80.59
17060;BME280;8646;49.716;9.266;2022-11-21T12:55:20;98956.44;;;9.81;79.71
17060;BME280;8646;49.716;9.266;2022-11-21T12:58:31;98949.59;;;9.90;80.58
17060;BME280;8646;49.716;9.266;2022-11-21T13:01:43;98945.84;;;9.92;80.27
17060;BME280;8646;49.716;9.266;2022-11-21T13:04:50;98938.31;;;9.98;81.16
17060;BME280;8646;49.716;9.266;2022-11-21T13:08:00;98938.63;;;10.07;81.72
17060;BME280;8646;49.716;9.266;2022-11-21T13:11:10;98939.09;;;10.14;81.42
17060;BME280;8646;49.716;9.266;2022-11-21T13:14:39;98934.22;;;10.20;80.10
17060;BME280;8646;49.716;9.266;2022-11-21T13:17:48;98933.53;;;10.31;78.54
17060;BME280;8646;49.716;9.266;2022-11-21T13:20:54;98926.56;;;10.41;77.96
17060;BME280;8646;49.716;9.266;2022-11-21T13:23:57;98915.16;;;10.50;76.20
17060;BME280;8646;49.716;9.266;2022-11-21T13:27:00;98919.31;;;10.56;77.09
17060;BME280;8646;49.716;9.266;2022-11-21T13:30:22;98912.38;;;10.52;76.39
17060;BME280;8646;49.716;9.266;2022-11-21T13:33:46;98904.88;;;10.28;76.98
17060;BME280;8646;49.716;9.266;2022-11-21T13:36:50;98907.94;;;10.08;77.39
17060;BME280;8646;49.716;9.266;2022-11-21T13:43:35;98899.03;;;9.64;78.79
17060;BME280;8646;49.716;9.266;2022-11-21T13:46:58;98900.41;;;9.41;79.70
17060;BME280;8646;49.716;9.266;2022-11-21T13:50:08;98900.81;;;9.19;80.29
17060;BME280;8646;49.716;9.266;2022-11-21T13:53:37;98899.31;;;8.99;81.48
17060;BME280;8646;49.716;9.266;2022-11-21T13:57:08;98880.72;;;8.79;82.05
17060;BME280;8646;49.716;9.266;2022-11-21T14:00:24;98875.34;;;8.63;82.52
17060;BME280;8646;49.716;9.266;2022-11-21T14:03:40;98856.56;;;8.46;82.84
17060;BME280;8646;49.716;9.266;2022-11-21T14:06:49;98874.63;;;8.44;83.62
17060;BME280;8646;49.716;9.266;2022-11-21T14:09:55;98869.09;;;8.31;83.91
17060;BME280;8646;49.716;9.266;2022-11-21T14:13:02;98862.94;;;8.28;84.44
17060;BME280;8646;49.716;9.266;2022-11-21T14:16:17;98860.00;;;8.17;84.79
17060;BME280;8646;49.716;9.266;2022-11-21T14:19:25;98856.53;;;8.15;85.49
17060;BME280;8646;49.716;9.266;2022-11-21T14:22:34;98860.53;;;8.08;85.67
17060;BME280;8646;49.716;9.266;2022-11-21T14:25:48;98818.78;;;7.83;86.11
17060;BME280;8646;49.716;9.266;2022-11-21T14:28:52;98855.38;;;8.03;86.32
17060;BME280;8646;49.716;9.266;2022-11-21T14:31:55;98843.91;;;7.99;86.66
17060;BME280;8646;49.716;9.266;2022-11-21T14:35:08;98845.13;;;7.94;87.02
17060;BME280;8646;49.716;9.266;2022-11-21T14:38:13;98831.75;;;7.92;87.50
17060;BME280;8646;49.716;9.266;2022-11-21T14:41:27;98837.38;;;7.88;88.04
17060;BME280;8646;49.716;9.266;2022-11-21T14:44:30;98830.94;;;7.90;87.97
17060;BME280;8646;49.716;9.266;2022-11-21T14:47:33;98838.16;;;7.90;89.25
17060;BME280;8646;49.716;9.266;2022-11-21T14:50:36;98839.53;;;7.81;89.74
17060;BME280;8646;49.716;9.266;2022-11-21T14:53:39;98842.94;;;7.85;90.19
17060;BME280;8646;49.716;9.266;2022-11-21T14:56:46;98836.91;;;7.80;90.16
17060;BME280;8646;49.716;9.266;2022-11-21T14:59:49;98840.03;;;7.72;90.26
17060;BME280;8646;49.716;9.266;2022-11-21T15:02:53;98840.09;;;7.71;90.74
17060;BME280;8646;49.716;9.266;2022-11-21T15:05:58;98846.31;;;7.55;91.52
17060;BME280;8646;49.716;9.266;2022-11-21T15:09:10;98855.00;;;7.45;92.13
17060;BME280;8646;49.716;9.266;2022-11-21T15:12:39;98841.34;;;7.48;91.89
17060;BME280;8646;49.716;9.266;2022-11-21T15:15:47;98827.63;;;7.37;91.85
17060;BME280;8646;49.716;9.266;2022-11-21T15:18:52;98828.19;;;7.26;92.80
17060;BME280;8646;49.716;9.266;2022-11-21T15:21:56;98793.94;;;7.12;92.37
17060;BME280;8646;49.716;9.266;2022-11-21T15:25:05;98804.59;;;7.14;92.54
17060;BME280;8646;49.716;9.266;2022-11-21T15:28:14;98804.84;;;6.92;93.31
17060;BME280;8646;49.716;9.266;2022-11-21T15:31:18;98804.56;;;6.81;93.93
17060;BME280;8646;49.716;9.266;2022-11-21T15:34:25;98783.75;;;6.84;93.26
17060;BME280;8646;49.716;9.266;2022-11-21T15:37:36;98777.81;;;6.78;93.72
17060;BME280;8646;49.716;9.266;2022-11-21T15:40:39;98779.56;;;6.79;93.98
17060;BME280;8646;49.716;9.266;2022-11-21T15:43:49;98772.44;;;6.78;92.64
17060;BME280;8646;49.716;9.266;2022-11-21T15:46:53;98757.91;;;6.65;93.67
17060;BME280;8646;49.716;9.266;2022-11-21T15:49:56;98742.31;;;6.54;94.44
17060;BME280;8646;49.716;9.266;2022-11-21T15:52:58;98753.47;;;6.64;94.62
17060;BME280;8646;49.716;9.266;2022-11-21T15:56:01;98730.56;;;6.57;94.25
17060;BME280;8646;49.716;9.266;2022-11-21T15:59:06;98730.84;;;6.50;94.30
17060;BME280;8646;49.716;9.266;2022-11-21T16:02:11;98721.28;;;6.45;93.65
17060;BME280;8646;49.716;9.266;2022-11-21T16:05:14;98700.41;;;6.33;93.87
17060;BME280;8646;49.716;9.266;2022-11-21T16:08:17;98707.63;;;6.15;95.15
17060;BME280;8646;49.716;9.266;2022-11-21T16:11:23;98706.03;;;5.92;96.22
17060;BME280;8646;49.716;9.266;2022-11-21T16:14:27;98706.28;;;5.88;98.04
17060;BME280;8646;49.716;9.266;2022-11-21T16:17:30;98688.41;;;5.87;97.95
17060;BME280;8646;49.716;9.266;2022-11-21T16:20:32;98694.16;;;5.79;97.98
17060;BME280;8646;49.716;9.266;2022-11-21T16:23:36;98672.19;;;5.90;97.82
17060;BME280;8646;49.716;9.266;2022-11-21T16:26:39;98668.75;;;5.86;97.45
17060;BME280;8646;49.716;9.266;2022-11-21T16:29:43;98668.81;;;5.67;98.27
17060;BME280;8646;49.716;9.266;2022-11-21T16:32:47;98649.31;;;5.45;98.90
17060;BME280;8646;49.716;9.266;2022-11-21T16:35:51;98654.72;;;5.62;99.30
17060;BME280;8646;49.716;9.266;2022-11-21T16:38:57;98634.84;;;5.66;99.44
17060;BME280;8646;49.716;9.266;2022-11-21T16:42:10;98636.75;;;5.64;99.37
17060;BME280;8646;49.716;9.266;2022-11-21T16:45:14;98622.38;;;5.65;98.21
17060;BME280;8646;49.716;9.266;2022-11-21T16:48:18;98612.09;;;5.56;98.80
17060;BME280;8646;49.716;9.266;2022-11-21T16:51:21;98615.16;;;5.49;99.36
17060;BME280;8646;49.716;9.266;2022-11-21T16:54:26;98605.78;;;5.57;98.96